createdAt,value
2018-11-20T04:56:46.526Z,0.00
2018-11-20T04:57:46.629Z,0.00
2018-11-20T04:59:39.332Z,0.00
2018-11-20T05:00:39.312Z,0.00
2018-11-20T06:12:55.770Z,0.00
2018-11-20T06:13:55.566Z,0.00
2018-11-20T06:15:48.925Z,0.00
2018-11-20T06:16:48.903Z,0.00
2018-11-20T06:18:41.775Z,0.00
2018-11-20T06:19:41.733Z,0.00
2018-11-20T06:21:34.668Z,0.00
2018-11-20T06:22:34.591Z,0.00
2018-11-20T06:24:27.952Z,0.00
2018-11-20T06:25:27.888Z,0.00
2018-11-20T06:27:20.759Z,0.00
2018-11-20T06:28:20.724Z,0.00
2018-11-20T06:30:14.147Z,0.00
2018-11-20T06:31:14.040Z,0.00
2018-11-20T06:33:06.909Z,0.00
2018-11-20T06:34:06.878Z,0.00
2018-11-20T06:36:00.221Z,0.00
2018-11-20T06:37:00.201Z,0.00
2018-11-20T06:38:53.096Z,0.00
2018-11-20T06:39:53.048Z,0.00
2018-11-20T06:41:45.910Z,0.00
2018-11-20T06:42:45.883Z,0.00
2018-11-20T06:44:38.756Z,0.00
2018-11-20T06:45:38.732Z,0.00
2018-11-20T06:47:31.659Z,0.00
2018-11-20T06:48:31.581Z,0.00
2018-11-20T06:50:24.935Z,0.00
2018-11-20T06:51:24.920Z,0.00
2018-11-20T06:53:18.330Z,0.00
2018-11-20T06:54:18.236Z,0.00
2018-11-20T06:56:11.146Z,0.00
2018-11-20T06:57:11.092Z,0.00
2018-11-20T06:58:11.072Z,0.00
2018-11-20T06:59:11.060Z,0.00
2018-11-20T07:00:11.057Z,0.00
2018-11-20T07:01:11.040Z,0.00
2018-11-20T07:02:11.035Z,0.00
2018-11-20T07:03:11.041Z,0.00
2018-11-20T07:04:11.013Z,0.00
2018-11-20T07:05:11.000Z,0.00
2018-11-20T07:06:11.000Z,0.00
2018-11-20T07:07:11.039Z,0.00
2018-11-20T07:08:11.152Z,0.00
2018-11-20T07:09:10.968Z,0.00
2018-11-20T07:10:11.001Z,0.00
2018-11-20T07:11:10.946Z,0.00
2018-11-20T07:12:10.942Z,0.00
2018-11-20T07:13:10.929Z,0.00
2018-11-20T07:14:10.919Z,0.00
2018-11-20T07:15:11.008Z,0.00
2018-11-20T07:16:10.992Z,0.00
2018-11-20T07:17:10.893Z,0.00
2018-11-20T07:18:10.885Z,0.00
2018-11-20T07:19:10.876Z,0.00
2018-11-20T07:20:10.867Z,0.00
2018-11-20T07:21:10.859Z,0.00
2018-11-20T07:22:10.846Z,0.00
2018-11-20T07:23:10.839Z,0.00
2018-11-20T07:24:10.835Z,0.00
2018-11-20T07:25:10.819Z,0.00
2018-11-20T07:26:10.812Z,0.00
2018-11-20T07:27:10.804Z,0.00
2018-11-20T07:28:10.794Z,0.00
2018-11-20T07:29:10.783Z,0.00
2018-11-20T07:30:10.874Z,0.00
2018-11-20T07:31:10.815Z,0.00
2018-11-20T07:32:10.766Z,0.00
2018-11-20T07:33:10.750Z,0.00
2018-11-20T07:34:10.740Z,0.00
2018-11-20T07:35:10.732Z,0.00
2018-11-20T07:36:10.811Z,0.00
2018-11-20T07:37:10.872Z,0.00
2018-11-20T07:38:10.708Z,0.00
2018-11-20T07:39:10.697Z,0.00
2018-11-20T07:40:10.686Z,0.00
2018-11-20T07:41:10.676Z,0.00
2018-11-20T07:42:10.670Z,0.00
2018-11-20T07:43:10.699Z,0.00
2018-11-20T07:44:10.697Z,0.00
2018-11-20T07:45:10.642Z,0.00
2018-11-20T07:46:10.632Z,0.00
2018-11-20T07:47:10.623Z,0.00
2018-11-20T07:48:10.614Z,0.00
2018-11-20T07:49:10.606Z,0.00
2018-11-20T07:50:10.596Z,0.00
2018-11-20T07:51:10.589Z,0.00
2018-11-20T07:52:10.579Z,0.00
2018-11-20T07:53:10.570Z,0.00
2018-11-20T07:54:10.562Z,0.00
2018-11-20T07:55:10.591Z,0.00
2018-11-20T07:56:10.711Z,0.00
2018-11-20T07:57:10.534Z,0.00
2018-11-20T07:58:10.529Z,0.00
2018-11-20T07:59:10.516Z,0.00
2018-11-20T08:00:10.508Z,0.00
2018-11-20T08:01:10.497Z,0.00
2018-11-20T08:02:10.496Z,0.00
2018-11-20T08:03:10.485Z,0.00
2018-11-20T08:04:10.474Z,5.63
2018-11-20T08:05:10.466Z,5.63
2018-11-20T08:06:10.455Z,5.63
2018-11-20T08:07:10.445Z,5.63
2018-11-20T08:08:10.438Z,0.00
2018-11-20T08:09:10.428Z,0.00
2018-11-20T08:10:10.431Z,0.00
2018-11-20T08:11:10.411Z,0.00
2018-11-20T08:12:10.402Z,0.00
2018-11-20T08:13:10.392Z,5.63
2018-11-20T08:14:10.385Z,5.63
2018-11-20T08:15:10.373Z,5.63
2018-11-20T08:16:10.454Z,5.63
2018-11-20T08:17:10.358Z,5.63
2018-11-20T08:18:10.348Z,5.63
2018-11-20T08:19:10.339Z,5.63
2018-11-20T08:20:10.330Z,5.63
2018-11-20T08:21:10.322Z,5.63
2018-11-20T08:22:10.311Z,5.63
2018-11-20T08:23:10.301Z,5.63
2018-11-20T08:24:10.295Z,5.63
2018-11-20T08:25:10.291Z,5.63
2018-11-20T08:26:10.420Z,5.63
2018-11-20T08:27:10.268Z,5.63
2018-11-20T08:28:10.261Z,5.63
2018-11-20T08:29:10.261Z,5.63
2018-11-20T08:30:10.245Z,5.63
2018-11-20T08:31:10.326Z,5.63
2018-11-20T08:32:10.227Z,5.63
2018-11-20T08:33:10.218Z,5.63
2018-11-20T08:34:10.235Z,5.63
2018-11-20T08:35:10.258Z,5.63
2018-11-20T08:36:10.187Z,0.00
2018-11-20T08:37:10.235Z,0.00
2018-11-20T08:38:10.172Z,5.63
2018-11-20T08:39:10.160Z,5.63
2018-11-20T08:40:10.154Z,5.63
2018-11-20T08:41:10.151Z,5.63
2018-11-20T08:42:10.196Z,5.63
2018-11-20T08:43:10.133Z,5.63
2018-11-20T08:44:10.170Z,5.63
2018-11-20T08:45:10.119Z,5.63
2018-11-20T08:46:10.102Z,5.63
2018-11-20T08:47:10.092Z,5.63
2018-11-20T08:48:10.097Z,5.63
2018-11-20T08:49:10.075Z,5.63
2018-11-20T08:50:10.081Z,5.63
2018-11-20T08:51:10.058Z,5.63
2018-11-20T08:52:10.048Z,5.63
2018-11-20T08:53:10.048Z,5.63
2018-11-20T08:54:10.032Z,5.63
2018-11-20T08:55:10.021Z,5.63
2018-11-20T08:56:10.020Z,5.63
2018-11-20T08:57:10.007Z,5.63
2018-11-20T08:58:09.997Z,5.63
2018-11-20T08:59:09.991Z,5.63
2018-11-20T09:00:09.983Z,5.63
2018-11-20T09:01:09.971Z,5.63
2018-11-20T09:02:10.039Z,5.63
2018-11-20T09:03:10.032Z,5.63
2018-11-20T09:04:09.943Z,5.63
2018-11-20T09:05:09.933Z,5.63
2018-11-20T09:06:09.923Z,5.63
2018-11-20T09:07:09.913Z,5.63
2018-11-20T09:08:09.907Z,5.63
2018-11-20T09:09:09.904Z,5.63
2018-11-20T09:10:09.967Z,5.63
2018-11-20T09:11:09.882Z,5.63
2018-11-20T09:12:09.873Z,5.63
2018-11-20T09:13:09.863Z,5.63
2018-11-20T09:14:09.857Z,5.63
2018-11-20T09:15:09.846Z,5.63
2018-11-20T09:16:09.839Z,5.63
2018-11-20T09:17:09.828Z,5.63
2018-11-20T09:18:09.824Z,5.63
2018-11-20T09:19:09.810Z,5.63
2018-11-20T09:20:09.818Z,5.63
2018-11-20T09:21:09.868Z,5.63
2018-11-20T09:22:09.787Z,5.63
2018-11-20T09:23:09.780Z,5.63
2018-11-20T09:24:09.768Z,5.63
2018-11-20T09:25:09.762Z,5.63
2018-11-20T09:26:09.752Z,5.63
2018-11-20T09:27:09.743Z,5.63
2018-11-20T09:28:09.735Z,5.63
2018-11-20T09:29:09.733Z,5.63
2018-11-20T09:30:09.719Z,11.25
2018-11-20T09:31:09.708Z,11.25
2018-11-20T09:32:09.698Z,11.25
2018-11-20T09:33:09.694Z,5.63
2018-11-20T09:34:09.704Z,5.63
2018-11-20T09:35:09.806Z,5.63
2018-11-20T09:36:09.666Z,5.63
2018-11-20T09:37:09.655Z,5.63
2018-11-20T09:38:09.648Z,5.63
2018-11-20T09:39:09.639Z,5.63
2018-11-20T09:40:09.629Z,5.63
2018-11-20T09:41:09.624Z,5.63
2018-11-20T09:42:09.614Z,5.63
2018-11-20T09:43:09.603Z,5.63
2018-11-20T09:44:09.594Z,5.63
2018-11-20T09:45:09.611Z,5.63
2018-11-20T09:46:09.584Z,5.63
2018-11-20T09:47:09.597Z,5.63
2018-11-20T09:48:09.560Z,5.63
2018-11-20T09:49:09.555Z,5.63
2018-11-20T09:50:09.543Z,5.63
2018-11-20T09:51:09.540Z,5.63
2018-11-20T09:52:09.553Z,5.63
2018-11-20T09:53:09.516Z,5.63
2018-11-20T09:54:09.551Z,5.63
2018-11-20T09:55:09.500Z,5.63
2018-11-20T09:56:09.492Z,11.25
2018-11-20T09:57:09.482Z,11.25
2018-11-20T09:58:09.476Z,11.25
2018-11-20T09:59:09.530Z,11.25
2018-11-20T10:00:09.459Z,11.25
2018-11-20T10:01:09.455Z,11.25
2018-11-20T10:02:09.440Z,11.25
2018-11-20T10:03:09.432Z,11.25
2018-11-20T10:04:09.428Z,11.25
2018-11-20T10:05:09.423Z,16.88
2018-11-20T10:06:09.408Z,16.88
2018-11-20T10:07:09.444Z,16.88
2018-11-20T10:08:09.391Z,16.88
2018-11-20T10:09:09.390Z,16.88
2018-11-20T10:10:09.373Z,16.88
2018-11-20T10:11:09.369Z,16.88
2018-11-20T10:12:09.356Z,22.50
2018-11-20T10:13:09.345Z,16.88
2018-11-20T10:14:09.429Z,22.50
2018-11-20T10:15:09.409Z,22.50
2018-11-20T10:16:09.325Z,22.50
2018-11-20T10:17:09.313Z,22.50
2018-11-20T10:18:09.305Z,22.50
2018-11-20T10:19:09.295Z,22.50
2018-11-20T10:20:09.287Z,22.50
2018-11-20T10:21:09.282Z,22.50
2018-11-20T10:22:09.391Z,22.50
2018-11-20T10:23:09.261Z,22.50
2018-11-20T10:24:09.254Z,22.50
2018-11-20T10:25:09.251Z,22.50
2018-11-20T10:26:09.349Z,22.50
2018-11-20T10:27:09.238Z,28.13
2018-11-20T10:28:09.219Z,28.13
2018-11-20T10:29:09.212Z,28.13
2018-11-20T10:31:09.190Z,28.13
2018-11-20T10:32:09.185Z,28.13
2018-11-20T10:33:09.175Z,22.50
2018-11-20T10:34:09.214Z,22.50
2018-11-20T10:35:09.159Z,28.13
2018-11-20T10:36:09.150Z,22.50
2018-11-20T10:37:09.143Z,28.13
2018-11-20T10:38:09.134Z,28.13
2018-11-20T10:39:09.119Z,28.13
2018-11-20T10:40:09.116Z,28.13
2018-11-20T10:41:09.121Z,28.13
2018-11-20T10:42:09.099Z,28.13
2018-11-20T10:43:09.089Z,22.50
2018-11-20T10:44:09.086Z,22.50
2018-11-20T10:45:09.075Z,22.50
2018-11-20T10:46:09.150Z,22.50
2018-11-20T10:47:09.063Z,22.50
2018-11-20T10:48:09.048Z,22.50
2018-11-20T10:49:09.040Z,22.50
2018-11-20T10:50:09.032Z,22.50
2018-11-20T10:51:09.101Z,22.50
2018-11-20T10:52:09.014Z,22.50
2018-11-20T10:53:09.004Z,22.50
2018-11-20T10:54:08.995Z,22.50
2018-11-20T10:55:08.989Z,22.50
2018-11-20T10:56:08.980Z,22.50
2018-11-20T10:57:08.972Z,22.50
2018-11-20T10:58:08.963Z,22.50
2018-11-20T10:59:08.952Z,22.50
2018-11-20T11:00:08.945Z,22.50
2018-11-20T11:01:08.948Z,22.50
2018-11-20T11:02:08.928Z,22.50
2018-11-20T11:03:08.919Z,22.50
2018-11-20T11:04:08.914Z,22.50
2018-11-20T11:05:08.988Z,28.13
2018-11-20T11:06:08.901Z,28.13
2018-11-20T11:07:09.273Z,28.13
2018-11-20T11:08:08.911Z,28.13
2018-11-20T11:09:08.868Z,28.13
2018-11-20T11:10:08.866Z,28.13
2018-11-20T11:11:08.851Z,33.75
2018-11-20T11:12:08.927Z,33.75
2018-11-20T11:13:08.833Z,28.13
2018-11-20T11:14:08.827Z,33.75
2018-11-20T11:15:08.815Z,28.13
2018-11-20T11:16:08.804Z,28.13
2018-11-20T11:17:08.797Z,28.13
2018-11-20T11:18:08.798Z,28.13
2018-11-20T11:19:08.778Z,28.13
2018-11-20T11:20:08.776Z,28.13
2018-11-20T11:21:08.840Z,28.13
2018-11-20T11:22:08.757Z,28.13
2018-11-20T11:23:08.745Z,28.13
2018-11-20T11:24:08.737Z,28.13
2018-11-20T11:25:08.730Z,28.13
2018-11-20T11:26:08.721Z,28.13
2018-11-20T11:27:08.713Z,28.13
2018-11-20T11:28:08.704Z,33.75
2018-11-20T11:29:08.696Z,28.13
2018-11-20T11:30:08.697Z,33.75
2018-11-20T11:31:08.678Z,33.75
2018-11-20T11:32:08.670Z,33.75
2018-11-20T11:33:08.665Z,33.75
2018-11-20T11:34:08.653Z,33.75
2018-11-20T11:35:08.646Z,33.75
2018-11-20T11:36:08.633Z,33.75
2018-11-20T11:37:08.674Z,33.75
2018-11-20T11:38:08.620Z,39.38
2018-11-20T11:39:08.612Z,39.38
2018-11-20T11:40:08.603Z,39.38
2018-11-20T11:41:08.594Z,45.00
2018-11-20T11:42:08.589Z,39.38
2018-11-20T11:43:08.575Z,39.38
2018-11-20T11:44:08.569Z,39.38
2018-11-20T11:45:08.558Z,45.00
2018-11-20T11:46:08.592Z,50.63
2018-11-20T11:47:08.540Z,45.00
2018-11-20T11:48:08.531Z,45.00
2018-11-20T11:49:08.525Z,45.00
2018-11-20T11:50:08.515Z,50.63
2018-11-20T11:51:08.510Z,50.63
2018-11-20T11:52:08.504Z,50.63
2018-11-20T11:53:08.486Z,50.63
2018-11-20T11:54:08.488Z,56.25
2018-11-20T11:55:08.531Z,56.25
2018-11-20T11:56:08.464Z,56.25
2018-11-20T11:57:08.455Z,56.25
2018-11-20T11:58:08.446Z,56.25
2018-11-20T11:59:08.438Z,50.63
2018-11-20T12:00:08.432Z,50.63
2018-11-20T12:01:08.421Z,39.38
2018-11-20T12:03:29.411Z,45.00
2018-11-20T12:04:29.404Z,39.38
2018-11-20T12:05:08.392Z,39.38
2018-11-20T12:06:08.379Z,39.38
2018-11-20T12:07:08.371Z,39.38
2018-11-20T12:08:08.366Z,39.38
2018-11-20T12:09:08.355Z,39.38
2018-11-20T12:10:08.449Z,39.38
2018-11-20T12:11:08.341Z,45.00
2018-11-20T12:12:08.329Z,45.00
2018-11-20T12:13:08.324Z,50.63
2018-11-20T12:14:08.314Z,45.00
2018-11-20T12:15:08.308Z,45.00
2018-11-20T12:16:08.297Z,39.38
2018-11-20T12:17:08.289Z,39.38
2018-11-20T12:18:08.278Z,39.38
2018-11-20T12:19:08.270Z,33.75
2018-11-20T12:20:08.264Z,33.75
2018-11-20T12:21:08.251Z,39.38
2018-11-20T12:22:08.265Z,33.75
2018-11-20T12:23:08.235Z,33.75
2018-11-20T12:24:08.230Z,33.75
2018-11-20T12:25:08.222Z,33.75
2018-11-20T12:26:08.210Z,33.75
2018-11-20T12:27:08.202Z,39.38
2018-11-20T12:28:08.193Z,33.75
2018-11-20T12:29:08.187Z,28.13
2018-11-20T12:30:08.183Z,28.13
2018-11-20T12:31:09.385Z,33.75
2018-11-20T12:32:08.521Z,33.75
2018-11-20T12:33:08.182Z,28.13
2018-11-20T12:34:08.146Z,33.75
2018-11-20T12:35:08.134Z,28.13
2018-11-20T12:36:08.130Z,28.13
2018-11-20T12:37:08.115Z,28.13
2018-11-20T12:38:08.105Z,28.13
2018-11-20T12:39:08.101Z,28.13
2018-11-20T12:40:08.103Z,28.13
2018-11-20T12:41:09.726Z,28.13
2018-11-20T12:42:08.076Z,28.13
2018-11-20T12:43:08.096Z,28.13
2018-11-20T12:44:08.052Z,28.13
2018-11-20T12:45:08.276Z,28.13
2018-11-20T12:46:12.959Z,28.13
2018-11-20T12:47:09.355Z,28.13
2018-11-20T12:48:08.021Z,22.50
2018-11-20T12:49:08.012Z,22.50
2018-11-20T12:50:08.565Z,22.50
2018-11-20T12:51:07.998Z,22.50
2018-11-20T12:52:07.985Z,16.88
2018-11-20T12:53:07.977Z,16.88
2018-11-20T12:54:07.969Z,22.50
2018-11-20T12:55:07.959Z,16.88
2018-11-20T12:56:07.950Z,16.88
2018-11-20T12:57:07.940Z,16.88
2018-11-20T12:58:07.933Z,16.88
2018-11-20T12:59:07.927Z,16.88
2018-11-20T13:00:07.915Z,16.88
2018-11-20T13:01:07.908Z,16.88
2018-11-20T13:02:07.899Z,16.88
2018-11-20T13:03:07.889Z,16.88
2018-11-20T13:04:08.846Z,16.88
2018-11-20T13:05:09.448Z,16.88
2018-11-20T13:06:07.866Z,16.88
2018-11-20T13:07:07.855Z,16.88
2018-11-20T13:08:07.851Z,16.88
2018-11-20T13:09:07.838Z,16.88
2018-11-20T13:10:07.828Z,16.88
2018-11-20T13:11:07.819Z,11.25
2018-11-20T13:12:07.810Z,11.25
2018-11-20T13:13:07.804Z,11.25
2018-11-20T13:14:07.797Z,11.25
2018-11-20T13:15:07.795Z,11.25
2018-11-20T13:16:07.777Z,11.25
2018-11-20T13:17:08.977Z,11.25
2018-11-20T13:18:09.118Z,11.25
2018-11-20T13:19:07.751Z,11.25
2018-11-20T13:20:08.119Z,11.25
2018-11-20T13:21:09.734Z,11.25
2018-11-20T13:22:07.735Z,11.25
2018-11-20T13:23:07.723Z,11.25
2018-11-20T13:24:09.582Z,11.25
2018-11-20T13:25:09.445Z,11.25
2018-11-20T13:26:07.688Z,11.25
2018-11-20T13:27:07.681Z,11.25
2018-11-20T13:28:07.672Z,11.25
2018-11-20T13:29:07.666Z,11.25
2018-11-20T13:30:07.655Z,11.25
2018-11-20T13:31:07.648Z,11.25
2018-11-20T13:32:07.647Z,11.25
2018-11-20T13:33:07.634Z,11.25
2018-11-20T13:34:07.622Z,11.25
2018-11-20T13:35:07.623Z,11.25
2018-11-20T13:36:07.614Z,11.25
2018-11-20T13:37:09.798Z,11.25
2018-11-20T13:38:07.591Z,11.25
2018-11-20T13:39:07.576Z,11.25
2018-11-20T13:40:07.565Z,11.25
2018-11-20T13:41:07.557Z,11.25
2018-11-20T13:42:07.547Z,11.25
2018-11-20T13:43:07.542Z,11.25
2018-11-20T13:44:07.530Z,11.25
2018-11-20T13:45:07.526Z,11.25
2018-11-20T13:46:07.513Z,11.25
2018-11-20T13:47:07.503Z,11.25
2018-11-20T13:48:07.497Z,11.25
2018-11-20T13:49:07.504Z,11.25
2018-11-20T13:50:07.485Z,11.25
2018-11-20T13:51:07.468Z,11.25
2018-11-20T13:52:07.460Z,5.63
2018-11-20T13:53:07.452Z,5.63
2018-11-20T13:54:07.442Z,5.63
2018-11-20T13:55:07.437Z,5.63
2018-11-20T13:56:07.425Z,5.63
2018-11-20T13:57:07.415Z,5.63
2018-11-20T13:58:07.411Z,5.63
2018-11-20T13:59:07.400Z,5.63
2018-11-20T14:00:07.390Z,5.63
2018-11-20T14:01:07.380Z,5.63
2018-11-20T14:02:07.372Z,11.25
2018-11-20T14:03:07.365Z,11.25
2018-11-20T14:04:07.364Z,11.25
2018-11-20T14:05:07.352Z,5.63
2018-11-20T14:06:07.346Z,5.63
2018-11-20T14:07:07.332Z,5.63
2018-11-20T14:08:07.324Z,5.63
2018-11-20T14:09:08.055Z,5.63
2018-11-20T14:10:07.305Z,5.63
2018-11-20T14:11:07.296Z,5.63
2018-11-20T14:12:07.286Z,5.63
2018-11-20T14:13:07.283Z,5.63
2018-11-20T14:14:07.282Z,5.63
2018-11-20T14:15:07.263Z,5.63
2018-11-20T14:16:07.266Z,5.63
2018-11-20T14:17:07.242Z,5.63
2018-11-20T14:18:07.260Z,5.63
2018-11-20T14:19:07.224Z,5.63
2018-11-20T14:20:07.216Z,5.63
2018-11-20T14:21:07.214Z,5.63
2018-11-20T14:22:07.205Z,5.63
2018-11-20T14:23:07.191Z,5.63
2018-11-20T14:24:07.181Z,5.63
2018-11-20T14:25:07.411Z,5.63
2018-11-20T14:26:07.311Z,5.63
2018-11-20T14:27:07.159Z,5.63
2018-11-20T14:28:07.147Z,5.63
2018-11-20T14:29:07.137Z,5.63
2018-11-20T14:30:07.132Z,5.63
2018-11-20T14:31:07.124Z,0.00
2018-11-20T14:32:07.113Z,0.00
2018-11-20T14:33:07.102Z,5.63
2018-11-20T14:34:07.092Z,5.63
2018-11-20T14:35:07.089Z,5.63
2018-11-20T14:36:07.077Z,5.63
2018-11-20T14:37:07.069Z,0.00
2018-11-20T14:38:07.059Z,5.63
2018-11-20T14:39:07.049Z,0.00
2018-11-20T14:40:07.042Z,0.00
2018-11-20T14:41:07.033Z,0.00
2018-11-20T14:42:07.022Z,0.00
2018-11-20T14:43:07.016Z,0.00
2018-11-20T14:44:07.005Z,0.00
2018-11-20T14:45:06.995Z,0.00
2018-11-20T14:46:06.988Z,0.00
2018-11-20T14:47:06.979Z,0.00
2018-11-20T14:48:06.971Z,0.00
2018-11-20T14:49:06.965Z,0.00
2018-11-20T14:50:06.956Z,0.00
2018-11-20T14:51:06.956Z,0.00
2018-11-20T14:52:06.934Z,0.00
2018-11-20T14:53:06.927Z,0.00
2018-11-20T14:54:06.921Z,0.00
2018-11-20T14:55:06.916Z,0.00
2018-11-20T14:56:06.899Z,0.00
2018-11-20T14:57:06.891Z,0.00
2018-11-20T14:58:06.886Z,0.00
2018-11-20T14:59:06.875Z,0.00
2018-11-20T15:00:06.864Z,0.00
2018-11-20T15:01:06.856Z,0.00
2018-11-20T15:02:06.846Z,0.00
2018-11-20T15:03:06.845Z,0.00
2018-11-20T15:04:06.829Z,0.00
2018-11-20T15:05:06.823Z,0.00
2018-11-20T15:06:06.814Z,0.00
2018-11-20T15:07:06.803Z,0.00
2018-11-20T15:08:06.795Z,0.00
2018-11-20T15:09:06.785Z,0.00
2018-11-20T15:10:06.778Z,0.00
2018-11-20T15:11:06.764Z,0.00
2018-11-20T15:12:06.759Z,0.00
2018-11-20T15:13:06.753Z,0.00
2018-11-20T15:14:06.744Z,0.00
2018-11-20T15:15:06.733Z,0.00
2018-11-20T15:16:06.732Z,0.00
2018-11-20T15:17:06.727Z,0.00
2018-11-20T15:18:06.709Z,0.00
2018-11-20T15:19:06.696Z,0.00
2018-11-20T15:20:06.690Z,0.00
2018-11-20T15:21:06.678Z,0.00
2018-11-20T15:22:06.670Z,0.00
2018-11-20T15:23:06.663Z,0.00
2018-11-20T15:24:06.655Z,0.00
2018-11-20T15:25:06.647Z,0.00
2018-11-20T15:26:06.638Z,0.00
2018-11-20T15:27:06.636Z,0.00
2018-11-20T15:28:06.800Z,0.00
2018-11-20T15:29:06.611Z,0.00
2018-11-20T15:30:06.608Z,0.00
2018-11-20T15:31:06.594Z,0.00
2018-11-20T15:32:06.586Z,0.00
2018-11-20T15:33:06.573Z,0.00
2018-11-20T15:34:06.565Z,0.00
2018-11-20T15:35:06.557Z,0.00
2018-11-20T15:36:06.546Z,0.00
2018-11-20T15:37:06.537Z,0.00
2018-11-20T15:38:06.536Z,0.00
2018-11-20T15:39:06.519Z,0.00
2018-11-20T15:40:06.515Z,0.00
2018-11-20T15:41:06.501Z,0.00
2018-11-20T15:42:06.892Z,0.00
2018-11-20T15:43:06.480Z,0.00
2018-11-20T15:44:06.477Z,0.00
2018-11-20T15:45:06.499Z,0.00
2018-11-20T15:46:06.512Z,0.00
2018-11-20T15:47:06.445Z,0.00
2018-11-20T15:48:06.532Z,0.00
2018-11-20T15:49:06.433Z,0.00
2018-11-20T15:50:06.424Z,0.00
2018-11-20T15:51:06.416Z,0.00
2018-11-20T15:52:06.440Z,0.00
2018-11-20T15:53:06.428Z,0.00
2018-11-20T15:54:06.392Z,0.00
2018-11-20T15:55:06.379Z,0.00
2018-11-20T15:56:06.372Z,0.00
2018-11-20T15:57:06.361Z,0.00
2018-11-20T15:58:59.260Z,0.00
2018-11-20T15:59:59.230Z,0.00
2018-11-20T16:01:52.652Z,0.00
2018-11-20T16:02:52.622Z,0.00
2018-11-20T16:04:45.503Z,0.00
2018-11-20T16:05:45.490Z,0.00
2018-11-20T16:07:38.370Z,0.00
2018-11-20T16:08:38.324Z,0.00
2018-11-20T16:10:31.817Z,0.00
2018-11-20T16:11:31.709Z,0.00
2018-11-20T16:12:31.701Z,0.00
2018-11-20T16:13:31.708Z,0.00
2018-11-20T16:14:31.681Z,0.00
2018-11-20T16:15:31.675Z,0.00
2018-11-20T16:16:31.660Z,0.00
2018-11-20T16:17:31.657Z,0.00
2018-11-20T16:18:31.662Z,0.00
2018-11-20T16:19:31.635Z,0.00
2018-11-20T16:20:31.624Z,0.00
2018-11-20T16:21:31.616Z,0.00
2018-11-20T16:22:31.608Z,0.00
2018-11-20T16:23:38.927Z,0.00
2018-11-20T16:25:24.472Z,0.00
2018-11-20T16:26:24.451Z,0.00
2018-11-20T16:27:24.502Z,0.00
2018-11-20T16:28:24.429Z,0.00
2018-11-20T16:29:24.428Z,0.00
2018-11-20T16:30:24.420Z,0.00
2018-11-20T16:31:24.402Z,0.00
2018-11-20T16:32:24.398Z,0.00
2018-11-20T16:33:24.386Z,0.00
2018-11-20T16:34:24.421Z,0.00
2018-11-20T16:35:24.385Z,0.00
2018-11-20T16:36:24.359Z,0.00
2018-11-20T16:37:24.398Z,0.00
2018-11-20T16:38:24.347Z,0.00
2018-11-20T16:39:24.437Z,0.00
2018-11-20T16:40:24.336Z,0.00
2018-11-20T16:41:31.729Z,0.00
2018-11-20T16:43:17.189Z,0.00
2018-11-20T16:44:17.160Z,0.00
2018-11-20T16:46:11.149Z,0.00
2018-11-20T16:47:10.992Z,0.00
2018-11-20T16:49:03.885Z,0.00
2018-11-20T16:50:03.857Z,0.00
2018-11-20T16:51:56.846Z,0.00
2018-11-20T16:52:56.709Z,0.00
2018-11-20T16:54:50.138Z,0.00
2018-11-20T16:55:50.364Z,0.00
2018-11-20T16:57:43.523Z,0.00
2018-11-20T16:58:43.447Z,0.00
2018-11-20T16:59:43.443Z,0.00
2018-11-20T17:00:43.434Z,0.00
2018-11-20T17:01:43.574Z,0.00
2018-11-20T17:02:43.477Z,0.00
2018-11-20T17:03:43.418Z,0.00
2018-11-20T17:04:43.468Z,0.00
2018-11-20T17:05:43.406Z,0.00
2018-11-20T17:06:43.382Z,0.00
2018-11-20T17:07:43.365Z,0.00
2018-11-20T17:08:43.360Z,0.00
2018-11-20T17:09:43.449Z,0.00
2018-11-20T17:10:43.343Z,0.00
2018-11-20T17:11:43.331Z,0.00
2018-11-20T17:12:43.322Z,0.00
2018-11-20T17:13:43.311Z,0.00
2018-11-20T17:14:43.311Z,0.00
2018-11-20T17:15:43.303Z,0.00
2018-11-20T17:16:43.285Z,0.00
2018-11-20T17:17:43.288Z,0.00
2018-11-20T17:18:43.271Z,0.00
2018-11-20T17:19:43.261Z,0.00
2018-11-20T17:20:43.258Z,0.00
2018-11-20T17:21:43.246Z,0.00
2018-11-20T17:22:43.240Z,0.00
2018-11-20T17:23:43.264Z,0.00
2018-11-20T17:24:43.246Z,0.00
2018-11-20T17:25:43.223Z,0.00
2018-11-20T17:26:43.200Z,0.00
2018-11-20T17:27:43.204Z,0.00
2018-11-20T17:28:43.200Z,0.00
2018-11-20T17:29:50.660Z,0.00
2018-11-20T17:31:36.629Z,0.00
2018-11-20T17:32:36.590Z,0.00
2018-11-20T17:34:30.010Z,0.00
2018-11-20T17:35:29.990Z,0.00
2018-11-20T17:37:23.863Z,0.00
2018-11-20T17:38:25.468Z,0.00
2018-11-20T17:40:20.927Z,0.00
2018-11-20T17:41:16.695Z,0.00
2018-11-20T17:42:16.792Z,0.00
2018-11-20T17:43:16.691Z,0.00
2018-11-20T17:44:16.666Z,0.00
2018-11-20T17:45:16.657Z,0.00
2018-11-20T17:46:16.654Z,0.00
2018-11-20T17:47:16.645Z,0.00
2018-11-20T17:48:16.693Z,0.00
2018-11-20T17:49:16.603Z,0.00
2018-11-20T17:50:16.620Z,0.00
2018-11-20T17:51:24.149Z,0.00
2018-11-20T17:53:09.712Z,0.00
2018-11-20T17:54:17.112Z,0.00
2018-11-20T17:56:02.847Z,0.00
2018-11-20T17:57:02.828Z,0.00
2018-11-20T17:58:56.269Z,0.00
2018-11-20T17:59:55.776Z,0.00
2018-11-20T18:01:48.605Z,0.00
2018-11-20T18:02:55.733Z,0.00
2018-11-20T18:04:41.977Z,0.00
2018-11-20T18:05:41.959Z,0.00
2018-11-20T18:07:36.091Z,0.00
2018-11-20T18:08:35.322Z,0.00
2018-11-20T18:10:28.792Z,0.00
2018-11-20T18:11:28.716Z,0.00
2018-11-20T18:12:28.698Z,0.00
2018-11-20T18:13:28.681Z,0.00
2018-11-20T18:14:28.672Z,0.00
2018-11-20T18:15:28.675Z,0.00
2018-11-20T18:16:35.944Z,0.00
2018-11-20T18:18:22.057Z,0.00
2018-11-20T18:19:22.039Z,0.00
2018-11-20T18:21:15.422Z,0.00
2018-11-20T18:22:16.573Z,0.00
2018-11-20T18:24:08.818Z,0.00
2018-11-20T18:25:08.811Z,0.00
2018-11-20T18:27:02.337Z,0.00
2018-11-20T18:28:02.391Z,0.00
2018-11-20T18:29:55.237Z,0.00
2018-11-20T18:30:55.056Z,0.00
2018-11-20T18:32:52.807Z,0.00
2018-11-20T18:33:47.900Z,0.00
2018-11-20T18:35:41.339Z,0.00
2018-11-20T18:36:41.304Z,0.00
2018-11-20T18:38:34.523Z,0.00
2018-11-20T18:39:34.516Z,0.00
2018-11-20T18:41:27.358Z,0.00
2018-11-20T18:42:27.347Z,0.00
2018-11-20T18:44:20.807Z,0.00
2018-11-20T18:47:12.519Z,0.00
2018-11-20T18:48:19.663Z,0.00
2018-11-20T18:50:06.765Z,0.00
2018-11-20T18:51:06.681Z,0.00
2018-11-20T18:53:00.745Z,0.00
2018-11-20T18:54:00.053Z,0.00
2018-11-20T18:55:52.911Z,0.00
2018-11-20T18:56:52.982Z,0.00
2018-11-20T18:58:45.772Z,0.00
2018-11-20T18:59:45.738Z,0.00
2018-11-20T19:01:39.161Z,0.00
2018-11-20T19:02:39.178Z,0.00
2018-11-20T19:04:32.061Z,0.00
2018-11-20T19:05:32.046Z,0.00
2018-11-20T19:06:32.451Z,0.00
2018-11-20T19:07:31.977Z,0.00
2018-11-20T19:08:31.969Z,0.00
2018-11-20T19:09:31.959Z,0.00
2018-11-20T19:10:31.950Z,0.00
2018-11-20T19:11:31.942Z,0.00
2018-11-20T19:12:31.934Z,0.00
2018-11-20T19:13:31.942Z,0.00
2018-11-20T19:14:31.918Z,0.00
2018-11-20T19:15:31.908Z,0.00
2018-11-20T19:16:31.897Z,0.00
2018-11-20T19:17:31.904Z,0.00
2018-11-20T19:18:40.135Z,0.00
2018-11-20T19:20:25.327Z,0.00
2018-11-20T19:21:25.365Z,0.00
2018-11-20T19:23:18.232Z,0.00
2018-11-20T19:24:26.513Z,0.00
2018-11-20T19:26:11.858Z,0.00
2018-11-20T19:27:11.579Z,0.00
2018-11-20T19:29:04.992Z,0.00
2018-11-20T19:30:04.997Z,0.00
2018-11-20T19:31:57.821Z,0.00
2018-11-20T19:32:57.781Z,0.00
2018-11-20T19:34:50.650Z,0.00
2018-11-20T19:35:50.684Z,0.00
2018-11-20T19:37:43.528Z,0.00
2018-11-20T19:38:43.506Z,0.00
2018-11-20T19:40:36.992Z,0.00
2018-11-20T19:41:36.863Z,0.00
2018-11-20T19:43:29.823Z,0.00
2018-11-20T19:44:29.685Z,0.00
2018-11-20T19:46:23.063Z,0.00
2018-11-20T19:47:23.047Z,0.00
2018-11-20T19:49:16.584Z,0.00
2018-11-20T19:50:16.399Z,0.00
2018-11-20T19:52:09.253Z,0.00
2018-11-20T19:53:09.237Z,0.00
2018-11-20T19:54:09.249Z,0.00
2018-11-20T19:55:09.227Z,0.00
2018-11-20T19:56:09.206Z,0.00
2018-11-20T19:57:09.223Z,0.00
2018-11-20T19:59:09.188Z,0.00
2018-11-20T20:00:09.171Z,0.00
2018-11-20T20:01:09.165Z,0.00
2018-11-20T20:02:09.155Z,0.00
2018-11-20T20:03:09.153Z,0.00
2018-11-20T20:04:09.148Z,0.00
2018-11-20T20:05:09.130Z,0.00
2018-11-20T20:06:09.120Z,0.00
2018-11-20T20:07:09.110Z,0.00
2018-11-20T20:08:09.140Z,0.00
2018-11-20T20:09:09.108Z,0.00
2018-11-20T20:10:17.467Z,0.00
2018-11-20T20:11:09.080Z,0.00
2018-11-20T20:12:09.072Z,0.00
2018-11-20T20:13:09.072Z,0.00
2018-11-20T20:14:09.062Z,0.00
2018-11-20T20:15:09.045Z,0.00
2018-11-20T20:16:09.037Z,0.00
2018-11-20T20:17:09.027Z,0.00
2018-11-20T20:18:09.064Z,0.00
2018-11-20T20:19:09.015Z,0.00
2018-11-20T20:20:09.004Z,0.00
2018-11-20T20:21:08.998Z,0.00
2018-11-20T20:22:08.988Z,0.00